Time;durP1;ratioP1;P1;durP2;ratioP2;P2;SDS_P1;SDS_P2;PMS_P1;PMS_P2;Temp;Humidity;BMP_temperature;BMP_pressure;BME280_temperature;BME280_humidity;BME280_pressure;Samples;Min_cycle;Max_cycle;Signal;HPM_P1;HPM_P2
2022/06/23 00:01:47;;;;;;;;;;;;;;;18.90;49.11;101102.97;5067876;28;19928;-60
2022/06/23 00:04:20;;;;;;;;;;;;;;;18.85;49.50;101105.44;5068140;28;19921;-61
2022/06/23 00:06:54;;;;;;;;;;;;;;;18.83;49.42;101099.47;5064484;28;19928;-60
2022/06/23 00:09:36;;;;;;;;;;;;;;;18.79;49.66;101092.88;5067345;28;20267;-60
2022/06/23 00:12:13;;;;;;;;;;;;;;;18.76;49.78;101098.66;5067214;28;19981;-61
2022/06/23 00:14:38;;;;;;;;;;;;;;;18.71;50.09;101095.78;5064587;28;20053;-60
2022/06/23 00:17:22;;;;;;;;;;;;;;;18.69;50.39;101094.13;5065128;28;20355;-61
2022/06/23 00:19:48;;;;;;;;;;;;;;;18.65;50.52;101090.22;5066546;28;20035;-61
2022/06/23 00:22:14;;;;;;;;;;;;;;;18.58;50.99;101092.09;5066268;28;19955;-61
2022/06/23 00:24:40;;;;;;;;;;;;;;;18.55;51.16;101093.31;5067140;28;19924;-60
2022/06/23 00:27:08;;;;;;;;;;;;;;;18.51;51.43;101100.13;5068516;28;19921;-60
2022/06/23 00:29:34;;;;;;;;;;;;;;;18.56;51.69;101094.16;5067289;28;19931;-60
2022/06/23 00:32:04;;;;;;;;;;;;;;;18.44;52.28;101090.47;5065517;28;20213;-61
2022/06/23 00:34:33;;;;;;;;;;;;;;;18.42;51.82;101098.72;5050050;28;19921;-61
2022/06/23 00:37:04;;;;;;;;;;;;;;;18.39;51.90;101105.31;5061708;28;19921;-61
2022/06/23 00:39:48;;;;;;;;;;;;;;;18.39;52.02;101102.66;5065983;28;19948;-62
2022/06/23 00:42:21;;;;;;;;;;;;;;;18.39;52.37;101105.31;5065627;28;19982;-61
2022/06/23 00:44:52;;;;;;;;;;;;;;;18.37;52.09;101102.03;5066588;28;20018;-61
2022/06/23 00:47:25;;;;;;;;;;;;;;;18.38;52.26;101097.47;5064338;28;19924;-60
2022/06/23 00:49:50;;;;;;;;;;;;;;;18.37;52.28;101096.66;5066900;28;19928;-61
2022/06/23 00:52:34;;;;;;;;;;;;;;;18.35;52.74;101087.97;5065359;28;19940;-60
2022/06/23 00:55:02;;;;;;;;;;;;;;;18.31;53.39;101092.13;5064119;28;20003;-60
2022/06/23 00:57:33;;;;;;;;;;;;;;;18.26;52.82;101075.81;5068398;28;20425;-60
2022/06/23 01:00:14;;;;;;;;;;;;;;;18.22;53.36;101075.41;5071794;28;20470;-61
2022/06/23 01:02:43;;;;;;;;;;;;;;;18.16;53.26;101073.56;5065464;28;20424;-61
2022/06/23 01:05:15;;;;;;;;;;;;;;;18.13;53.56;101080.16;5064893;28;19928;-61
2022/06/23 01:07:57;;;;;;;;;;;;;;;18.10;53.58;101074.34;5063542;28;19947;-60
2022/06/23 01:10:27;;;;;;;;;;;;;;;18.05;54.08;101077.63;5065560;28;19981;-60
2022/06/23 01:13:14;;;;;;;;;;;;;;;18.02;54.87;101075.38;5064778;28;19920;-60
2022/06/23 01:16:06;;;;;;;;;;;;;;;17.96;54.57;101078.88;5061055;28;20448;-61
2022/06/23 01:18:36;;;;;;;;;;;;;;;17.90;54.63;101068.97;5031677;28;19928;-60
2022/06/23 01:21:05;;;;;;;;;;;;;;;17.88;57.74;101072.66;5065213;28;19926;-60
2022/06/23 01:23:46;;;;;;;;;;;;;;;17.79;55.21;101079.25;5066747;28;20359;-60
2022/06/23 01:26:23;;;;;;;;;;;;;;;17.79;56.34;101078.41;5064128;28;19928;-60
2022/06/23 01:28:56;;;;;;;;;;;;;;;17.77;55.64;101070.59;5067538;28;19933;-60
2022/06/23 01:31:21;;;;;;;;;;;;;;;17.77;57.21;101078.63;5065961;28;19920;-60
2022/06/23 01:33:47;;;;;;;;;;;;;;;17.73;57.70;101075.50;5067347;28;19924;-61
2022/06/23 01:36:18;;;;;;;;;;;;;;;17.71;56.44;101076.78;5066499;28;19963;-61
2022/06/23 01:38:52;;;;;;;;;;;;;;;17.68;57.01;101078.00;5060369;28;19920;-62
2022/06/23 01:41:23;;;;;;;;;;;;;;;17.65;56.49;101072.22;5065940;28;20343;-62
2022/06/23 01:43:52;;;;;;;;;;;;;;;17.68;56.70;101077.16;5063775;28;20574;-61
2022/06/23 01:46:25;;;;;;;;;;;;;;;17.65;56.84;101078.41;5064109;28;20321;-60
2022/06/23 01:48:53;;;;;;;;;;;;;;;17.63;57.03;101079.63;5064239;28;19943;-60
2022/06/23 01:51:21;;;;;;;;;;;;;;;17.62;57.27;101086.84;5064035;28;19979;-61
2022/06/23 01:53:47;;;;;;;;;;;;;;;17.60;57.23;101076.34;5077277;28;20015;-60
2022/06/23 01:56:20;;;;;;;;;;;;;;;17.59;57.35;101074.69;5065260;28;20065;-60
2022/06/23 01:58:53;;;;;;;;;;;;;;;17.57;57.84;101079.41;5064927;28;19929;-60
2022/06/23 02:01:24;;;;;;;;;;;;;;;17.55;58.19;101073.44;5066720;28;19928;-61
2022/06/23 02:03:54;;;;;;;;;;;;;;;17.51;58.05;101066.81;5062907;28;20012;-61
2022/06/23 02:06:23;;;;;;;;;;;;;;;17.49;58.45;101068.88;5067086;28;19925;-60
2022/06/23 02:08:48;;;;;;;;;;;;;;;17.44;58.90;101061.44;5060639;28;19921;-61
2022/06/23 02:11:13;;;;;;;;;;;;;;;17.43;59.27;101067.00;5064754;28;19944;-60
2022/06/23 02:13:52;;;;;;;;;;;;;;;17.42;58.80;101068.03;5063346;28;19935;-60
2022/06/23 02:16:28;;;;;;;;;;;;;;;17.40;59.82;101062.88;5066850;28;19920;-60
2022/06/23 02:19:03;;;;;;;;;;;;;;;17.39;59.59;101063.91;5063658;28;19924;-60
2022/06/23 02:21:52;;;;;;;;;;;;;;;17.37;59.32;101067.81;5064710;28;19920;-61
2022/06/23 02:24:25;;;;;;;;;;;;;;;17.36;59.52;101066.97;5054163;28;20383;-62
2022/06/23 02:26:51;;;;;;;;;;;;;;;17.37;59.65;101055.22;5065613;28;20323;-61
2022/06/23 02:29:23;;;;;;;;;;;;;;;17.38;60.31;101056.06;5062761;28;19924;-61
2022/06/23 02:32:07;;;;;;;;;;;;;;;17.30;60.01;101059.72;5062918;28;19927;-61
2022/06/23 02:34:32;;;;;;;;;;;;;;;17.28;60.32;101051.91;5064397;28;19920;-60
2022/06/23 02:37:05;;;;;;;;;;;;;;;17.23;60.34;101054.38;5062350;28;19974;-60
2022/06/23 02:39:47;;;;;;;;;;;;;;;17.20;61.08;101054.75;5065322;28;20229;-60
2022/06/23 02:42:18;;;;;;;;;;;;;;;17.20;60.16;101060.13;5064353;28;19940;-61
2022/06/23 02:44:56;;;;;;;;;;;;;;;17.20;60.78;101054.75;5060551;28;19921;-60
2022/06/23 02:47:24;;;;;;;;;;;;;;;17.20;60.61;101065.47;5062275;28;20038;-62
2022/06/23 02:50:01;;;;;;;;;;;;;;;17.22;61.08;101063.41;5063527;28;19921;-62
2022/06/23 02:52:42;;;;;;;;;;;;;;;17.18;61.09;101057.63;5062292;28;19930;-60
2022/06/23 02:55:10;;;;;;;;;;;;;;;17.19;61.08;101053.09;5061805;28;19971;-62
2022/06/23 02:57:42;;;;;;;;;;;;;;;17.17;61.52;101057.84;5058917;28;19970;-61
2022/06/23 03:00:16;;;;;;;;;;;;;;;17.16;61.57;101046.28;5062687;28;19930;-60
2022/06/23 03:02:51;;;;;;;;;;;;;;;17.13;61.35;101037.84;5066600;28;20576;-60
2022/06/23 03:05:33;;;;;;;;;;;;;;;17.07;61.34;101034.09;5062366;28;19924;-60
2022/06/23 03:08:01;;;;;;;;;;;;;;;17.05;61.50;101042.34;5067890;28;19940;-60
2022/06/23 03:10:32;;;;;;;;;;;;;;;17.02;62.05;101034.69;5062449;28;20551;-60
2022/06/23 03:13:08;;;;;;;;;;;;;;;16.95;61.85;101036.50;5063721;28;20397;-61
2022/06/23 03:15:40;;;;;;;;;;;;;;;16.94;62.08;101034.84;5066092;28;19927;-60
2022/06/23 03:18:15;;;;;;;;;;;;;;;16.93;62.52;101025.97;5062952;28;19974;-61
2022/06/23 03:20:52;;;;;;;;;;;;;;;16.91;62.57;101027.19;5065988;28;19924;-60
2022/06/23 03:23:27;;;;;;;;;;;;;;;16.88;62.26;101022.25;5063544;28;19931;-60
2022/06/23 03:26:00;;;;;;;;;;;;;;;16.86;62.52;101032.31;5059817;28;19959;-60
2022/06/23 03:28:29;;;;;;;;;;;;;;;16.80;62.48;101032.09;5064153;28;20062;-60
2022/06/23 03:31:13;;;;;;;;;;;;;;;16.80;62.72;101026.75;5062387;28;20370;-60
2022/06/23 03:33:47;;;;;;;;;;;;;;;16.79;62.99;101022.41;5067644;28;19932;-61
2022/06/23 03:36:31;;;;;;;;;;;;;;;16.78;62.41;101030.66;5062149;28;19964;-60
2022/06/23 03:41:46;;;;;;;;;;;;;;;16.76;62.30;101044.22;5063581;28;19927;-60
2022/06/23 03:44:20;;;;;;;;;;;;;;;16.77;62.52;101045.03;5064811;28;19920;-61
2022/06/23 03:46:51;;;;;;;;;;;;;;;16.74;62.22;101046.28;5066289;28;19927;-60
2022/06/23 03:49:23;;;;;;;;;;;;;;;16.74;63.22;101046.28;5065958;28;20007;-60
2022/06/23 03:51:51;;;;;;;;;;;;;;;16.72;62.65;101042.97;5063234;28;19928;-60
2022/06/23 03:54:22;;;;;;;;;;;;;;;16.70;62.48;101042.34;5066325;28;19920;-60
2022/06/23 03:56:49;;;;;;;;;;;;;;;16.71;62.43;101045.81;5067450;28;19955;-60
2022/06/23 03:59:35;;;;;;;;;;;;;;;16.72;62.27;101042.97;5067372;28;19929;-61
2022/06/23 04:02:10;;;;;;;;;;;;;;;16.69;63.14;101051.41;5061540;28;19982;-60
2022/06/23 04:04:39;;;;;;;;;;;;;;;16.68;62.52;101042.53;5073537;28;19921;-61
2022/06/23 04:07:24;;;;;;;;;;;;;;;16.71;62.23;101044.00;5067557;28;19928;-61
2022/06/23 04:09:49;;;;;;;;;;;;;;;16.73;62.56;101044.59;5065390;28;20393;-61
2022/06/23 04:12:15;;;;;;;;;;;;;;;16.74;62.82;101048.97;5067851;28;19924;-60
2022/06/23 04:15:00;;;;;;;;;;;;;;;16.75;63.23;101047.94;5065776;28;19958;-60
2022/06/23 04:17:32;;;;;;;;;;;;;;;16.73;62.67;101039.25;5065221;28;20011;-61
2022/06/23 04:20:08;;;;;;;;;;;;;;;16.73;62.56;101033.09;5063526;28;19929;-60
2022/06/23 04:22:42;;;;;;;;;;;;;;;16.71;63.79;101030.59;5067817;28;20025;-60
2022/06/23 04:25:11;;;;;;;;;;;;;;;16.71;62.50;101025.25;5063746;28;19928;-60
2022/06/23 04:27:39;;;;;;;;;;;;;;;16.69;63.01;101024.63;5067972;28;20320;-61
2022/06/23 04:30:04;;;;;;;;;;;;;;;16.70;63.66;101020.91;5062980;28;19922;-61
2022/06/23 04:32:32;;;;;;;;;;;;;;;16.69;62.92;101021.94;5066130;28;20408;-60
2022/06/23 04:35:27;;;;;;;;;;;;;;;16.69;62.86;101029.97;5067287;28;20291;-62
2022/06/23 04:38:07;;;;;;;;;;;;;;;16.73;62.90;101047.28;5054084;28;19920;-60
2022/06/23 04:40:41;;;;;;;;;;;;;;;16.75;63.12;101053.28;5064081;28;19924;-62
2022/06/23 04:43:16;;;;;;;;;;;;;;;16.77;62.83;101051.22;5064995;28;19925;-61
2022/06/23 04:46:08;;;;;;;;;;;;;;;16.77;62.55;101043.19;5064113;28;19951;-62
2022/06/23 04:48:41;;;;;;;;;;;;;;;16.79;62.94;101043.81;5038398;28;19928;-61
2022/06/23 04:51:12;;;;;;;;;;;;;;;16.84;62.46;101043.25;5065454;28;19920;-60
2022/06/23 04:53:42;;;;;;;;;;;;;;;16.84;62.45;101034.38;5064840;28;19925;-63
2022/06/23 04:56:16;;;;;;;;;;;;;;;16.88;62.56;101039.13;5066632;28;20590;-63
2022/06/23 04:58:44;;;;;;;;;;;;;;;16.91;62.54;101028.03;5064128;28;19921;-63
2022/06/23 05:01:13;;;;;;;;;;;;;;;16.96;62.47;101038.13;5067840;28;19926;-64
2022/06/23 05:03:44;;;;;;;;;;;;;;;16.98;62.44;101033.44;5056942;28;19921;-62
2022/06/23 05:06:13;;;;;;;;;;;;;;;17.02;62.67;101042.72;5065711;28;20267;-60
2022/06/23 05:08:41;;;;;;;;;;;;;;;17.02;62.42;101042.72;5069895;28;19931;-61
2022/06/23 05:11:12;;;;;;;;;;;;;;;17.03;62.24;101043.56;5076496;28;19963;-60
2022/06/23 05:13:43;;;;;;;;;;;;;;;17.05;63.37;101037.00;5077987;28;19924;-61
2022/06/23 05:16:12;;;;;;;;;;;;;;;17.06;62.32;101043.16;5075399;28;19931;-61
2022/06/23 05:18:44;;;;;;;;;;;;;;;17.06;62.13;101043.16;5071649;28;19925;-61
2022/06/23 05:21:13;;;;;;;;;;;;;;;17.12;62.36;101042.34;5076750;28;19969;-61
2022/06/23 05:23:40;;;;;;;;;;;;;;;17.15;61.85;101047.31;5079208;28;19921;-61
2022/06/23 05:26:10;;;;;;;;;;;;;;;17.19;61.82;101043.22;5078906;28;20340;-60
2022/06/23 05:28:37;;;;;;;;;;;;;;;17.24;61.83;101033.75;5073660;28;19928;-60
2022/06/23 05:31:04;;;;;;;;;;;;;;;17.25;62.00;101041.59;5077981;28;19920;-60
2022/06/23 05:33:32;;;;;;;;;;;;;;;17.29;62.01;101034.81;5070117;28;19925;-61
2022/06/23 05:36:05;;;;;;;;;;;;;;;17.32;61.81;101033.56;5073774;28;20437;-60
2022/06/23 05:38:35;;;;;;;;;;;;;;;17.38;61.84;101045.34;5076442;28;19936;-61
2022/06/23 05:41:04;;;;;;;;;;;;;;;17.46;61.48;101051.34;5075647;28;19946;-60
2022/06/23 05:43:33;;;;;;;;;;;;;;;17.52;61.74;101038.97;5073955;28;19924;-61
2022/06/23 05:46:00;;;;;;;;;;;;;;;17.53;61.63;101032.59;5073025;28;20035;-60
2022/06/23 05:48:34;;;;;;;;;;;;;;;17.60;61.89;101038.78;5069447;28;19951;-60
2022/06/23 05:51:06;;;;;;;;;;;;;;;17.69;61.37;101046.63;5075627;28;19964;-60
2022/06/23 05:53:36;;;;;;;;;;;;;;;17.77;61.22;101043.78;5073291;28;19973;-60
2022/06/23 05:56:10;;;;;;;;;;;;;;;17.86;61.16;101041.72;5074831;28;19966;-60
2022/06/23 05:58:40;;;;;;;;;;;;;;;18.00;60.91;101037.16;5075043;28;19928;-61
2022/06/23 06:01:09;;;;;;;;;;;;;;;18.08;61.15;101041.53;5073860;28;19928;-60
2022/06/23 06:03:41;;;;;;;;;;;;;;;18.15;60.59;101045.88;5076451;28;19921;-60
2022/06/23 06:06:07;;;;;;;;;;;;;;;18.24;60.59;101048.34;5077223;28;20000;-60
2022/06/23 06:09:35;;;;;;;;;;;;;;;18.35;60.30;101045.03;5075150;28;20055;-59
2022/06/23 06:11:23;;;;;;;;;;;;;;;18.52;59.77;101033.84;5079360;28;19924;-60
2022/06/23 06:13:49;;;;;;;;;;;;;;;18.61;59.72;101040.66;5074707;28;19943;-59
2022/06/23 06:16:14;;;;;;;;;;;;;;;18.71;59.38;101036.69;5071855;28;19920;-62
2022/06/23 06:18:41;;;;;;;;;;;;;;;18.81;59.26;101037.09;5069913;28;19974;-60
2022/06/23 06:21:09;;;;;;;;;;;;;;;18.93;58.87;101030.00;5078035;28;19921;-60
2022/06/23 06:23:49;;;;;;;;;;;;;;;19.05;58.85;101034.75;5070097;28;20308;-61
2022/06/23 06:26:16;;;;;;;;;;;;;;;19.18;59.05;101037.38;5073805;28;20334;-59
2022/06/23 06:28:42;;;;;;;;;;;;;;;19.31;58.77;101041.03;5079225;28;20090;-60
2022/06/23 06:31:10;;;;;;;;;;;;;;;19.43;58.38;101023.16;5075034;28;20023;-60
2022/06/23 06:34:04;;;;;;;;;;;;;;;19.56;58.37;101043.78;5072634;28;19921;-61
2022/06/23 06:36:39;;;;;;;;;;;;;;;19.65;58.37;101046.19;5057741;28;19920;-60
2022/06/23 06:39:07;;;;;;;;;;;;;;;19.73;58.08;101045.94;5078393;28;19943;-60
2022/06/23 06:41:32;;;;;;;;;;;;;;;19.83;57.71;101050.84;5076272;28;19974;-60
2022/06/23 06:43:58;;;;;;;;;;;;;;;19.87;57.36;101044.81;5076538;28;20371;-61
2022/06/23 06:46:24;;;;;;;;;;;;;;;19.94;56.56;101044.78;5077632;28;20344;-61
2022/06/23 06:48:49;;;;;;;;;;;;;;;20.01;56.81;101045.56;5076520;28;19935;-61
2022/06/23 06:51:20;;;;;;;;;;;;;;;20.10;56.19;101039.88;5077223;28;20535;-61
2022/06/23 06:53:49;;;;;;;;;;;;;;;20.24;57.03;101029.84;5072770;28;20401;-61
2022/06/23 06:56:21;;;;;;;;;;;;;;;20.30;56.89;101037.03;5077533;28;20039;-61
2022/06/23 06:58:55;;;;;;;;;;;;;;;20.41;56.89;101043.53;5073063;28;20425;-60
2022/06/23 07:01:21;;;;;;;;;;;;;;;20.53;56.65;101052.53;5078696;28;19926;-61
2022/06/23 07:03:48;;;;;;;;;;;;;;;20.63;56.54;101051.19;5072375;28;19993;-61
2022/06/23 07:06:13;;;;;;;;;;;;;;;20.72;56.41;101049.84;5070571;28;19920;-61
2022/06/23 07:09:02;;;;;;;;;;;;;;;20.83;56.51;101051.78;5074113;28;20386;-62
2022/06/23 07:11:57;;;;;;;;;;;;;;;20.96;55.90;101044.63;5059498;28;20019;-60
2022/06/23 07:14:33;;;;;;;;;;;;;;;21.07;56.03;101051.94;5040374;28;19964;-60
2022/06/23 07:17:22;;;;;;;;;;;;;;;21.19;55.70;101053.88;5064088;28;20418;-61
2022/06/23 07:19:57;;;;;;;;;;;;;;;21.28;55.52;101046.28;5070270;28;20346;-61
2022/06/23 07:22:26;;;;;;;;;;;;;;;21.39;55.64;101037.44;5069770;28;20011;-61
2022/06/23 07:24:57;;;;;;;;;;;;;;;21.52;55.30;101041.81;5069919;28;19920;-61
2022/06/23 07:27:25;;;;;;;;;;;;;;;21.66;54.62;101034.31;5070693;28;20031;-61
2022/06/23 07:30:01;;;;;;;;;;;;;;;21.77;55.32;101033.56;5071877;28;20279;-61
2022/06/23 07:32:31;;;;;;;;;;;;;;;21.90;55.24;101037.09;5050686;28;20248;-61
2022/06/23 07:35:05;;;;;;;;;;;;;;;22.02;55.31;101037.13;5063644;28;19928;-61
2022/06/23 07:37:40;;;;;;;;;;;;;;;22.10;55.22;101031.38;5066419;28;19916;-61
2022/06/23 07:40:07;;;;;;;;;;;;;;;22.19;55.37;101033.72;5071829;28;20382;-61
2022/06/23 07:42:44;;;;;;;;;;;;;;;22.27;55.36;101031.50;5071902;28;20363;-61
2022/06/23 07:45:14;;;;;;;;;;;;;;;22.37;55.99;101033.59;5058458;28;19924;-61
2022/06/23 07:47:39;;;;;;;;;;;;;;;22.47;55.73;101032.16;5069347;28;19925;-61
2022/06/23 07:50:05;;;;;;;;;;;;;;;22.55;55.50;101032.66;5069973;28;20465;-62
2022/06/23 07:52:30;;;;;;;;;;;;;;;22.65;55.54;101029.34;5067864;28;19928;-61
2022/06/23 07:54:56;;;;;;;;;;;;;;;22.77;55.93;101031.22;5078525;28;19927;-61
2022/06/23 07:57:21;;;;;;;;;;;;;;;22.90;55.76;101028.22;5071999;28;19924;-61
2022/06/23 07:59:58;;;;;;;;;;;;;;;23.02;56.11;101035.47;5075615;28;20344;-60
2022/06/23 08:02:49;;;;;;;;;;;;;;;23.09;55.27;101023.47;5069889;28;19952;-60
2022/06/23 08:05:21;;;;;;;;;;;;;;;23.17;55.70;101022.25;5062736;28;20425;-60
2022/06/23 08:07:46;;;;;;;;;;;;;;;23.29;54.76;101034.91;5069836;28;20315;-61
2022/06/23 08:10:22;;;;;;;;;;;;;;;23.39;54.53;101024.31;5066771;28;19982;-61
2022/06/23 08:12:54;;;;;;;;;;;;;;;23.49;54.87;101029.09;5071161;28;19931;-60
2022/06/23 08:18:32;;;;;;;;;;;;;;;23.78;55.17;101027.13;5061428;28;20279;-60
2022/06/23 08:21:01;;;;;;;;;;;;;;;23.88;55.16;101020.25;5067155;28;19935;-60
2022/06/23 08:23:29;;;;;;;;;;;;;;;23.98;55.61;101028.50;5071183;28;19921;-60
2022/06/23 08:25:54;;;;;;;;;;;;;;;24.09;54.74;101020.56;5071153;28;19920;-61
2022/06/23 08:28:20;;;;;;;;;;;;;;;24.20;54.86;101019.66;5072334;28;20312;-60
2022/06/23 08:30:48;;;;;;;;;;;;;;;24.28;54.56;101021.13;5074086;28;19973;-63
2022/06/23 08:33:13;;;;;;;;;;;;;;;24.37;54.25;101016.09;5078831;28;19927;-60
2022/06/23 08:35:43;;;;;;;;;;;;;;;24.44;53.90;101022.16;5069769;28;19925;-62
2022/06/23 08:38:09;;;;;;;;;;;;;;;24.52;54.06;101013.56;5071500;28;19954;-61
2022/06/23 08:40:37;;;;;;;;;;;;;;;24.62;53.94;101018.31;5072662;28;19916;-61
2022/06/23 08:43:02;;;;;;;;;;;;;;;24.72;53.45;101014.91;5068103;28;19927;-61
2022/06/23 08:45:32;;;;;;;;;;;;;;;24.78;53.66;101022.03;5083232;28;19928;-61
2022/06/23 08:48:00;;;;;;;;;;;;;;;24.87;53.10;101018.91;5070042;28;19920;-61
2022/06/23 08:50:38;;;;;;;;;;;;;;;24.96;53.42;101011.97;5065892;28;19920;-61
2022/06/23 08:53:07;;;;;;;;;;;;;;;25.11;53.59;101014.03;5067463;28;20011;-59
2022/06/23 08:55:47;;;;;;;;;;;;;;;25.25;52.96;101011.69;5067751;28;19928;-61
2022/06/23 08:58:31;;;;;;;;;;;;;;;25.32;52.95;101015.03;5071070;28;19921;-60
2022/06/23 09:00:59;;;;;;;;;;;;;;;25.38;52.76;101014.03;5062488;28;19946;-60
2022/06/23 09:03:43;;;;;;;;;;;;;;;25.45;52.53;101013.78;5074273;28;19920;-60
2022/06/23 09:06:27;;;;;;;;;;;;;;;25.57;52.55;101000.09;5073452;28;20030;-61
2022/06/23 09:09:13;;;;;;;;;;;;;;;25.70;52.96;101008.88;5064654;28;19920;-61
2022/06/23 09:11:40;;;;;;;;;;;;;;;25.82;51.28;101005.97;5034219;28;20347;-61
2022/06/23 09:14:33;;;;;;;;;;;;;;;25.89;52.24;101004.66;5067514;28;19970;-61
2022/06/23 09:17:07;;;;;;;;;;;;;;;26.05;51.99;101000.16;5073438;28;19917;-62
2022/06/23 09:19:33;;;;;;;;;;;;;;;26.14;51.37;101003.19;5074686;28;20026;-61
2022/06/23 09:21:58;;;;;;;;;;;;;;;26.18;51.78;101004.31;5060846;28;20582;-62
2022/06/23 09:24:28;;;;;;;;;;;;;;;26.22;51.46;101004.59;5060917;28;19920;-61
2022/06/23 09:26:53;;;;;;;;;;;;;;;26.22;50.70;100998.31;5072796;28;19921;-63
2022/06/23 09:29:27;;;;;;;;;;;;;;;26.23;51.56;100994.56;5071130;28;19943;-62
2022/06/23 09:31:56;;;;;;;;;;;;;;;26.28;51.93;100997.31;5065814;28;20325;-62
2022/06/23 09:34:30;;;;;;;;;;;;;;;26.39;51.41;100995.47;5070097;28;19956;-62
2022/06/23 09:36:58;;;;;;;;;;;;;;;26.47;51.42;100994.94;5072182;28;19920;-61
2022/06/23 09:39:26;;;;;;;;;;;;;;;26.52;51.56;100984.09;5073761;28;19936;-62
2022/06/23 09:41:54;;;;;;;;;;;;;;;26.62;51.03;100986.03;5067713;28;20015;-63
2022/06/23 09:44:38;;;;;;;;;;;;;;;26.60;51.54;100985.50;5068027;28;19927;-61
2022/06/23 09:47:06;;;;;;;;;;;;;;;26.41;51.97;100980.53;5063109;28;19917;-61
2022/06/23 09:49:37;;;;;;;;;;;;;;;26.49;52.31;100981.09;5071208;28;19991;-61
2022/06/23 09:52:29;;;;;;;;;;;;;;;26.61;51.86;100989.00;5063577;28;20379;-61
2022/06/23 09:55:00;;;;;;;;;;;;;;;26.50;52.06;100989.00;5050246;28;19928;-60
2022/06/23 09:57:36;;;;;;;;;;;;;;;26.34;52.40;100979.94;5072857;28;19927;-60
2022/06/23 10:00:12;;;;;;;;;;;;;;;26.30;52.40;100978.84;5065032;28;20022;-61
2022/06/23 10:02:40;;;;;;;;;;;;;;;26.36;52.64;100988.66;5063364;28;20521;-60
2022/06/23 10:05:08;;;;;;;;;;;;;;;26.57;51.98;100986.84;5065345;28;19921;-60
2022/06/23 10:07:43;;;;;;;;;;;;;;;26.70;52.04;100982.00;5063355;28;19921;-60
2022/06/23 10:10:20;;;;;;;;;;;;;;;26.84;51.63;100993.19;5086507;28;19929;-61
2022/06/23 10:12:53;;;;;;;;;;;;;;;26.96;51.79;100980.19;5076938;28;20297;-60
2022/06/23 10:15:27;;;;;;;;;;;;;;;27.14;51.36;100988.91;5071602;28;19928;-59
2022/06/23 10:18:04;;;;;;;;;;;;;;;27.25;50.01;100979.69;5072136;28;20283;-62
2022/06/23 10:20:48;;;;;;;;;;;;;;;27.26;50.49;100989.47;5063377;28;20373;-60
2022/06/23 10:23:20;;;;;;;;;;;;;;;27.20;51.33;100990.56;5065431;28;19935;-61
2022/06/23 10:26:04;;;;;;;;;;;;;;;27.18;51.31;100976.38;5064720;28;20386;-62
2022/06/23 10:28:48;;;;;;;;;;;;;;;27.32;51.41;100984.03;5065311;28;19973;-58
2022/06/23 10:31:31;;;;;;;;;;;;;;;27.31;50.92;100976.94;5061032;28;20429;-59
2022/06/23 10:34:15;;;;;;;;;;;;;;;27.35;50.79;100970.69;5072435;28;19943;-59
2022/06/23 10:36:52;;;;;;;;;;;;;;;27.46;50.47;100959.78;5060546;28;20410;-59
2022/06/23 10:39:27;;;;;;;;;;;;;;;27.59;50.27;100958.47;5054156;28;20350;-59
2022/06/23 10:41:52;;;;;;;;;;;;;;;27.71;50.24;100958.16;5072140;28;19917;-59
2022/06/23 10:44:36;;;;;;;;;;;;;;;27.78;48.52;100964.97;5070467;28;19931;-59
2022/06/23 10:47:16;;;;;;;;;;;;;;;27.86;50.03;100957.31;5071391;28;20058;-59
2022/06/23 10:50:08;;;;;;;;;;;;;;;28.00;48.71;100955.66;5070762;28;19920;-59
2022/06/23 10:52:41;;;;;;;;;;;;;;;28.19;48.75;100955.03;5046225;28;19924;-59
2022/06/23 10:55:12;;;;;;;;;;;;;;;28.27;47.13;100946.31;5070257;28;19921;-59
2022/06/23 10:57:57;;;;;;;;;;;;;;;28.39;46.54;100953.34;5057455;28;19959;-59
2022/06/23 11:00:47;;;;;;;;;;;;;;;28.46;46.06;100953.84;5063030;28;20387;-59
2022/06/23 11:03:26;;;;;;;;;;;;;;;28.50;47.14;100948.69;5069588;28;19924;-59
2022/06/23 11:06:12;;;;;;;;;;;;;;;28.61;46.96;100947.50;5069538;28;19927;-59
2022/06/23 11:08:40;;;;;;;;;;;;;;;28.55;47.27;100946.72;5073430;28;19924;-59
2022/06/23 11:11:05;;;;;;;;;;;;;;;28.69;46.30;100935.19;5071414;28;20628;-59
2022/06/23 11:13:49;;;;;;;;;;;;;;;28.54;46.11;100939.66;5069746;28;19921;-59
2022/06/23 11:16:25;;;;;;;;;;;;;;;28.46;47.07;100938.31;5070694;28;19920;-59
2022/06/23 11:19:17;;;;;;;;;;;;;;;28.59;46.99;100945.09;5065710;28;19924;-58
2022/06/23 11:21:42;;;;;;;;;;;;;;;28.49;46.65;100933.41;5060391;28;19923;-59
2022/06/23 11:24:16;;;;;;;;;;;;;;;28.40;47.22;100938.63;5051923;28;19920;-59
2022/06/23 11:26:55;;;;;;;;;;;;;;;28.51;46.08;100945.66;5067009;28;19936;-59
2022/06/23 11:29:43;;;;;;;;;;;;;;;28.71;46.22;100943.94;5060120;28;19924;-59
2022/06/23 11:32:23;;;;;;;;;;;;;;;28.91;46.25;100942.19;5066463;28;20362;-60
2022/06/23 11:34:51;;;;;;;;;;;;;;;29.06;45.92;100933.88;5069302;28;19979;-60
2022/06/23 11:37:23;;;;;;;;;;;;;;;29.19;45.64;100942.50;5069143;28;20015;-59
2022/06/23 11:39:48;;;;;;;;;;;;;;;29.31;45.56;100936.69;5070070;28;19924;-60
2022/06/23 11:42:39;;;;;;;;;;;;;;;29.44;45.44;100937.94;5069772;28;19920;-61
2022/06/23 11:45:19;;;;;;;;;;;;;;;29.51;45.19;100944.72;5058768;28;20019;-60
2022/06/23 11:47:44;;;;;;;;;;;;;;;29.31;45.16;100940.25;5063746;28;19920;-61
2022/06/23 11:50:12;;;;;;;;;;;;;;;29.25;44.54;100930.47;5066945;28;19928;-60
2022/06/23 11:53:03;;;;;;;;;;;;;;;29.13;45.47;100928.91;5068303;28;19925;-61
2022/06/23 11:55:29;;;;;;;;;;;;;;;29.29;45.67;100920.59;5070301;28;20018;-64
2022/06/23 11:58:07;;;;;;;;;;;;;;;29.44;44.77;100918.84;5072161;28;20422;-60
2022/06/23 12:00:53;;;;;;;;;;;;;;;29.32;45.42;100920.03;5075517;28;19924;-61
2022/06/23 12:03:27;;;;;;;;;;;;;;;29.10;45.98;100915.03;5073926;28;19969;-60
2022/06/23 12:05:52;;;;;;;;;;;;;;;29.13;45.06;100918.00;5076572;28;20015;-60
2022/06/23 12:08:37;;;;;;;;;;;;;;;29.30;43.72;100918.69;5071999;28;20027;-60
2022/06/23 12:11:03;;;;;;;;;;;;;;;29.27;45.26;100917.34;5023480;28;20011;-61
2022/06/23 12:13:30;;;;;;;;;;;;;;;29.34;45.58;100923.28;5069233;28;20034;-60
2022/06/23 12:15:55;;;;;;;;;;;;;;;29.25;44.21;100925.00;5064637;28;20724;-61
2022/06/23 12:18:20;;;;;;;;;;;;;;;29.27;44.71;100911.88;5071496;28;19963;-60
2022/06/23 12:20:49;;;;;;;;;;;;;;;29.44;44.93;100900.50;5070570;28;19920;-61
2022/06/23 12:23:24;;;;;;;;;;;;;;;29.68;44.89;100916.13;5073449;28;19921;-62
2022/06/23 12:26:02;;;;;;;;;;;;;;;29.89;44.07;100908.53;5071428;28;19920;-61
2022/06/23 12:28:27;;;;;;;;;;;;;;;30.01;43.50;100901.84;5074037;28;19931;-61
2022/06/23 12:30:57;;;;;;;;;;;;;;;29.91;42.88;100900.88;5063598;28;20307;-62
2022/06/23 12:33:41;;;;;;;;;;;;;;;29.93;44.40;100901.38;5072453;28;20053;-58
2022/06/23 12:36:35;;;;;;;;;;;;;;;30.07;44.02;100903.41;5073057;28;19974;-61
2022/06/23 12:39:10;;;;;;;;;;;;;;;30.20;44.21;100899.16;5054418;28;19920;-61
2022/06/23 12:41:43;;;;;;;;;;;;;;;30.31;43.90;100894.38;5069856;28;19928;-61
2022/06/23 12:44:25;;;;;;;;;;;;;;;30.45;43.77;100900.72;5070791;28;19982;-61
2022/06/23 12:47:09;;;;;;;;;;;;;;;30.37;42.84;100893.19;5073178;28;20007;-61
2022/06/23 12:49:47;;;;;;;;;;;;;;;30.40;43.43;100892.63;5064372;28;19955;-61
2022/06/23 12:52:17;;;;;;;;;;;;;;;30.53;42.68;100890.25;5073517;28;19920;-60
2022/06/23 12:54:51;;;;;;;;;;;;;;;30.58;41.66;100892.91;5073444;28;19920;-61
2022/06/23 12:57:30;;;;;;;;;;;;;;;30.62;40.76;100891.19;5064522;28;19924;-61
2022/06/23 13:00:15;;;;;;;;;;;;;;;30.57;42.33;100886.63;5068783;28;19925;-59
2022/06/23 13:02:44;;;;;;;;;;;;;;;30.50;42.68;100879.88;5074369;28;19931;-60
2022/06/23 13:05:28;;;;;;;;;;;;;;;30.47;42.67;100870.34;5072492;28;19920;-63
2022/06/23 13:08:02;;;;;;;;;;;;;;;30.50;40.88;100869.75;5074072;28;20398;-64
2022/06/23 13:10:31;;;;;;;;;;;;;;;30.60;41.82;100877.00;5071880;28;19921;-63
2022/06/23 13:12:59;;;;;;;;;;;;;;;30.70;41.95;100868.66;5066877;28;19921;-65